sensor_id;sensor_type;location;lat;lon;timestamp;P1;durP1;ratioP1;P2;durP2;ratioP2
5137;SDS011;53959;53.626;11.410;2023-12-20T00:01:26;22.37;;;1.90;;
5137;SDS011;53959;53.626;11.410;2023-12-20T00:03:51;10.50;;;2.73;;
5137;SDS011;53959;53.626;11.410;2023-12-20T00:06:16;6.93;;;2.17;;
5137;SDS011;53959;53.626;11.410;2023-12-20T00:08:42;4.97;;;1.90;;
5137;SDS011;53959;53.626;11.410;2023-12-20T00:11:07;3.07;;;1.60;;
5137;SDS011;53959;53.626;11.410;2023-12-20T00:13:32;20.83;;;2.33;;
5137;SDS011;53959;53.626;11.410;2023-12-20T00:15:58;9.67;;;2.10;;
5137;SDS011;53959;53.626;11.410;2023-12-20T00:18:23;3.37;;;2.00;;
5137;SDS011;53959;53.626;11.410;2023-12-20T00:20:48;5.40;;;2.17;;
5137;SDS011;53959;53.626;11.410;2023-12-20T00:23:14;14.10;;;2.20;;
5137;SDS011;53959;53.626;11.410;2023-12-20T00:25:40;11.47;;;2.60;;
5137;SDS011;53959;53.626;11.410;2023-12-20T00:28:05;12.80;;;3.03;;
5137;SDS011;53959;53.626;11.410;2023-12-20T00:30:31;11.30;;;2.63;;
5137;SDS011;53959;53.626;11.410;2023-12-20T00:32:56;10.97;;;2.57;;
5137;SDS011;53959;53.626;11.410;2023-12-20T00:35:22;14.27;;;3.17;;
5137;SDS011;53959;53.626;11.410;2023-12-20T00:37:47;4.73;;;2.10;;
5137;SDS011;53959;53.626;11.410;2023-12-20T00:40:12;7.43;;;2.73;;
5137;SDS011;53959;53.626;11.410;2023-12-20T00:42:38;8.30;;;2.57;;
5137;SDS011;53959;53.626;11.410;2023-12-20T00:45:03;4.57;;;2.27;;
5137;SDS011;53959;53.626;11.410;2023-12-20T00:47:30;17.67;;;2.90;;
5137;SDS011;53959;53.626;11.410;2023-12-20T00:49:55;18.10;;;3.00;;
5137;SDS011;53959;53.626;11.410;2023-12-20T00:52:21;17.10;;;2.60;;
5137;SDS011;53959;53.626;11.410;2023-12-20T00:54:47;21.50;;;3.30;;
5137;SDS011;53959;53.626;11.410;2023-12-20T00:57:13;9.00;;;2.80;;
5137;SDS011;53959;53.626;11.410;2023-12-20T00:59:38;13.80;;;3.00;;
5137;SDS011;53959;53.626;11.410;2023-12-20T01:02:04;18.03;;;2.80;;
5137;SDS011;53959;53.626;11.410;2023-12-20T01:04:29;23.17;;;4.50;;
5137;SDS011;53959;53.626;11.410;2023-12-20T01:06:55;11.47;;;3.47;;
5137;SDS011;53959;53.626;11.410;2023-12-20T01:09:20;21.10;;;3.27;;
5137;SDS011;53959;53.626;11.410;2023-12-20T01:11:48;15.23;;;3.20;;
5137;SDS011;53959;53.626;11.410;2023-12-20T01:14:14;24.80;;;2.60;;
5137;SDS011;53959;53.626;11.410;2023-12-20T01:16:39;20.43;;;2.80;;
5137;SDS011;53959;53.626;11.410;2023-12-20T01:19:04;29.37;;;3.50;;
5137;SDS011;53959;53.626;11.410;2023-12-20T01:21:30;13.90;;;2.90;;
5137;SDS011;53959;53.626;11.410;2023-12-20T01:23:55;28.83;;;3.10;;
5137;SDS011;53959;53.626;11.410;2023-12-20T01:26:20;16.73;;;2.67;;
5137;SDS011;53959;53.626;11.410;2023-12-20T01:28:46;26.50;;;2.67;;
5137;SDS011;53959;53.626;11.410;2023-12-20T01:31:11;16.20;;;2.40;;
5137;SDS011;53959;53.626;11.410;2023-12-20T01:33:36;22.10;;;2.37;;
5137;SDS011;53959;53.626;11.410;2023-12-20T01:36:02;11.43;;;2.60;;
5137;SDS011;53959;53.626;11.410;2023-12-20T01:38:28;23.53;;;3.00;;
5137;SDS011;53959;53.626;11.410;2023-12-20T01:40:54;15.47;;;3.00;;
5137;SDS011;53959;53.626;11.410;2023-12-20T01:43:19;15.80;;;2.03;;
5137;SDS011;53959;53.626;11.410;2023-12-20T01:45:44;22.57;;;2.33;;
5137;SDS011;53959;53.626;11.410;2023-12-20T01:48:10;9.50;;;2.80;;
5137;SDS011;53959;53.626;11.410;2023-12-20T01:50:36;23.93;;;2.87;;
5137;SDS011;53959;53.626;11.410;2023-12-20T01:53:02;23.43;;;2.50;;
5137;SDS011;53959;53.626;11.410;2023-12-20T01:55:32;21.83;;;2.90;;
5137;SDS011;53959;53.626;11.410;2023-12-20T01:57:59;13.33;;;3.20;;
5137;SDS011;53959;53.626;11.410;2023-12-20T02:00:26;23.50;;;2.30;;
5137;SDS011;53959;53.626;11.410;2023-12-20T02:02:54;18.90;;;2.13;;
5137;SDS011;53959;53.626;11.410;2023-12-20T02:05:20;22.97;;;2.83;;
5137;SDS011;53959;53.626;11.410;2023-12-20T02:07:47;18.87;;;3.20;;
5137;SDS011;53959;53.626;11.410;2023-12-20T02:10:13;16.23;;;3.07;;
5137;SDS011;53959;53.626;11.410;2023-12-20T02:12:38;10.60;;;3.60;;
5137;SDS011;53959;53.626;11.410;2023-12-20T02:15:05;15.40;;;3.67;;
5137;SDS011;53959;53.626;11.410;2023-12-20T02:17:31;22.60;;;4.00;;
5137;SDS011;53959;53.626;11.410;2023-12-20T02:19:57;17.40;;;3.80;;
5137;SDS011;53959;53.626;11.410;2023-12-20T02:22:22;13.27;;;4.13;;
5137;SDS011;53959;53.626;11.410;2023-12-20T02:24:48;19.67;;;4.10;;
5137;SDS011;53959;53.626;11.410;2023-12-20T02:27:13;31.80;;;5.70;;
5137;SDS011;53959;53.626;11.410;2023-12-20T02:29:40;12.80;;;4.03;;
5137;SDS011;53959;53.626;11.410;2023-12-20T02:32:05;41.17;;;6.00;;
5137;SDS011;53959;53.626;11.410;2023-12-20T02:34:31;15.53;;;5.40;;
5137;SDS011;53959;53.626;11.410;2023-12-20T02:36:56;15.53;;;4.60;;
5137;SDS011;53959;53.626;11.410;2023-12-20T02:39:22;19.73;;;4.57;;
5137;SDS011;53959;53.626;11.410;2023-12-20T02:41:47;18.53;;;4.67;;
5137;SDS011;53959;53.626;11.410;2023-12-20T02:44:13;28.93;;;4.30;;
5137;SDS011;53959;53.626;11.410;2023-12-20T02:46:38;20.23;;;3.33;;
5137;SDS011;53959;53.626;11.410;2023-12-20T02:49:04;27.30;;;2.97;;
5137;SDS011;53959;53.626;11.410;2023-12-20T02:51:29;20.03;;;2.73;;
5137;SDS011;53959;53.626;11.410;2023-12-20T02:53:54;16.80;;;2.80;;
5137;SDS011;53959;53.626;11.410;2023-12-20T02:56:20;15.43;;;2.47;;
5137;SDS011;53959;53.626;11.410;2023-12-20T02:58:45;30.67;;;3.63;;
5137;SDS011;53959;53.626;11.410;2023-12-20T03:01:10;25.07;;;4.00;;
5137;SDS011;53959;53.626;11.410;2023-12-20T03:03:36;12.50;;;2.47;;
5137;SDS011;53959;53.626;11.410;2023-12-20T03:06:01;14.90;;;2.87;;
5137;SDS011;53959;53.626;11.410;2023-12-20T03:08:26;39.70;;;3.50;;
5137;SDS011;53959;53.626;11.410;2023-12-20T03:10:52;8.33;;;2.30;;
5137;SDS011;53959;53.626;11.410;2023-12-20T03:13:18;13.50;;;2.20;;
5137;SDS011;53959;53.626;11.410;2023-12-20T03:15:44;15.33;;;2.50;;
5137;SDS011;53959;53.626;11.410;2023-12-20T03:18:09;14.50;;;2.07;;
5137;SDS011;53959;53.626;11.410;2023-12-20T03:20:35;18.20;;;3.70;;
5137;SDS011;53959;53.626;11.410;2023-12-20T03:23:00;18.83;;;2.67;;
5137;SDS011;53959;53.626;11.410;2023-12-20T03:25:25;18.97;;;3.43;;
5137;SDS011;53959;53.626;11.410;2023-12-20T03:27:51;25.43;;;2.90;;
5137;SDS011;53959;53.626;11.410;2023-12-20T03:30:17;29.40;;;2.30;;
5137;SDS011;53959;53.626;11.410;2023-12-20T03:32:44;20.03;;;3.27;;
5137;SDS011;53959;53.626;11.410;2023-12-20T03:35:09;32.97;;;2.90;;
5137;SDS011;53959;53.626;11.410;2023-12-20T03:37:35;25.50;;;2.57;;
5137;SDS011;53959;53.626;11.410;2023-12-20T03:40:01;14.13;;;3.17;;
5137;SDS011;53959;53.626;11.410;2023-12-20T03:42:26;15.47;;;3.17;;
5137;SDS011;53959;53.626;11.410;2023-12-20T03:44:52;26.03;;;5.23;;
5137;SDS011;53959;53.626;11.410;2023-12-20T03:47:17;47.90;;;4.63;;
5137;SDS011;53959;53.626;11.410;2023-12-20T03:49:42;24.47;;;2.80;;
5137;SDS011;53959;53.626;11.410;2023-12-20T03:52:08;30.20;;;3.37;;
5137;SDS011;53959;53.626;11.410;2023-12-20T03:54:34;22.23;;;3.10;;
5137;SDS011;53959;53.626;11.410;2023-12-20T03:57:00;26.03;;;4.07;;
5137;SDS011;53959;53.626;11.410;2023-12-20T03:59:25;18.63;;;3.33;;
5137;SDS011;53959;53.626;11.410;2023-12-20T04:01:51;18.80;;;2.70;;
5137;SDS011;53959;53.626;11.410;2023-12-20T04:04:16;17.87;;;2.83;;
5137;SDS011;53959;53.626;11.410;2023-12-20T04:06:41;12.67;;;3.60;;
5137;SDS011;53959;53.626;11.410;2023-12-20T04:09:07;23.53;;;3.07;;
5137;SDS011;53959;53.626;11.410;2023-12-20T04:11:34;18.03;;;3.10;;
5137;SDS011;53959;53.626;11.410;2023-12-20T04:14:00;16.47;;;3.47;;
5137;SDS011;53959;53.626;11.410;2023-12-20T04:16:25;11.10;;;3.03;;
5137;SDS011;53959;53.626;11.410;2023-12-20T04:18:51;19.23;;;3.20;;
5137;SDS011;53959;53.626;11.410;2023-12-20T04:21:16;21.57;;;2.97;;
5137;SDS011;53959;53.626;11.410;2023-12-20T04:23:42;11.00;;;2.73;;
5137;SDS011;53959;53.626;11.410;2023-12-20T04:26:07;14.10;;;2.50;;
5137;SDS011;53959;53.626;11.410;2023-12-20T04:28:32;17.33;;;3.13;;
5137;SDS011;53959;53.626;11.410;2023-12-20T04:30:58;23.03;;;3.10;;
5137;SDS011;53959;53.626;11.410;2023-12-20T04:33:23;16.47;;;3.17;;
5137;SDS011;53959;53.626;11.410;2023-12-20T04:35:48;19.10;;;3.60;;
5137;SDS011;53959;53.626;11.410;2023-12-20T04:38:14;19.63;;;5.10;;
5137;SDS011;53959;53.626;11.410;2023-12-20T04:40:39;25.03;;;2.70;;
5137;SDS011;53959;53.626;11.410;2023-12-20T04:43:06;14.40;;;3.10;;
5137;SDS011;53959;53.626;11.410;2023-12-20T04:45:32;12.63;;;3.07;;
5137;SDS011;53959;53.626;11.410;2023-12-20T04:47:57;15.10;;;3.90;;
5137;SDS011;53959;53.626;11.410;2023-12-20T04:50:23;20.97;;;2.93;;
5137;SDS011;53959;53.626;11.410;2023-12-20T04:52:48;9.50;;;3.20;;
5137;SDS011;53959;53.626;11.410;2023-12-20T04:55:14;8.40;;;3.40;;
5137;SDS011;53959;53.626;11.410;2023-12-20T04:57:39;12.33;;;4.07;;
5137;SDS011;53959;53.626;11.410;2023-12-20T05:00:05;15.40;;;3.20;;
5137;SDS011;53959;53.626;11.410;2023-12-20T05:02:30;18.70;;;2.87;;
5137;SDS011;53959;53.626;11.410;2023-12-20T05:04:56;12.60;;;3.77;;
5137;SDS011;53959;53.626;11.410;2023-12-20T05:07:21;12.27;;;4.20;;
5137;SDS011;53959;53.626;11.410;2023-12-20T05:09:47;14.47;;;2.80;;
5137;SDS011;53959;53.626;11.410;2023-12-20T05:12:12;19.60;;;3.47;;
5137;SDS011;53959;53.626;11.410;2023-12-20T05:14:37;9.00;;;3.60;;
5137;SDS011;53959;53.626;11.410;2023-12-20T05:17:03;19.63;;;4.43;;
5137;SDS011;53959;53.626;11.410;2023-12-20T05:19:28;24.10;;;4.73;;
5137;SDS011;53959;53.626;11.410;2023-12-20T05:21:54;17.37;;;3.90;;
5137;SDS011;53959;53.626;11.410;2023-12-20T05:24:19;19.37;;;5.60;;
5137;SDS011;53959;53.626;11.410;2023-12-20T05:26:44;28.97;;;5.70;;
5137;SDS011;53959;53.626;11.410;2023-12-20T05:29:10;15.13;;;4.80;;
5137;SDS011;53959;53.626;11.410;2023-12-20T05:31:35;13.93;;;5.40;;
5137;SDS011;53959;53.626;11.410;2023-12-20T05:34:00;19.03;;;5.30;;
5137;SDS011;53959;53.626;11.410;2023-12-20T05:36:26;16.00;;;5.10;;
5137;SDS011;53959;53.626;11.410;2023-12-20T05:38:51;19.80;;;5.77;;
5137;SDS011;53959;53.626;11.410;2023-12-20T05:41:16;17.13;;;5.00;;
5137;SDS011;53959;53.626;11.410;2023-12-20T05:43:42;17.80;;;5.80;;
5137;SDS011;53959;53.626;11.410;2023-12-20T05:46:07;9.30;;;5.23;;
5137;SDS011;53959;53.626;11.410;2023-12-20T05:48:35;19.47;;;5.20;;
5137;SDS011;53959;53.626;11.410;2023-12-20T05:51:00;17.63;;;5.53;;
5137;SDS011;53959;53.626;11.410;2023-12-20T05:53:26;19.87;;;5.50;;
5137;SDS011;53959;53.626;11.410;2023-12-20T05:55:51;23.77;;;5.60;;
5137;SDS011;53959;53.626;11.410;2023-12-20T05:58:16;19.43;;;5.00;;
5137;SDS011;53959;53.626;11.410;2023-12-20T06:00:42;22.77;;;6.17;;
5137;SDS011;53959;53.626;11.410;2023-12-20T06:03:07;16.63;;;6.10;;
5137;SDS011;53959;53.626;11.410;2023-12-20T06:05:32;19.10;;;5.67;;
5137;SDS011;53959;53.626;11.410;2023-12-20T06:07:58;17.50;;;5.23;;
5137;SDS011;53959;53.626;11.410;2023-12-20T06:10:26;24.57;;;5.90;;
5137;SDS011;53959;53.626;11.410;2023-12-20T06:12:52;27.13;;;6.20;;
5137;SDS011;53959;53.626;11.410;2023-12-20T06:15:17;18.30;;;5.97;;
5137;SDS011;53959;53.626;11.410;2023-12-20T06:17:43;19.90;;;5.80;;
5137;SDS011;53959;53.626;11.410;2023-12-20T06:20:09;21.93;;;5.00;;
5137;SDS011;53959;53.626;11.410;2023-12-20T06:22:35;20.93;;;5.47;;
5137;SDS011;53959;53.626;11.410;2023-12-20T06:25:01;18.43;;;4.70;;
5137;SDS011;53959;53.626;11.410;2023-12-20T06:27:28;17.00;;;5.13;;
5137;SDS011;53959;53.626;11.410;2023-12-20T06:29:53;22.97;;;4.70;;
5137;SDS011;53959;53.626;11.410;2023-12-20T06:32:19;16.83;;;4.87;;
5137;SDS011;53959;53.626;11.410;2023-12-20T06:34:44;27.03;;;6.10;;
5137;SDS011;53959;53.626;11.410;2023-12-20T06:37:10;16.27;;;6.10;;
5137;SDS011;53959;53.626;11.410;2023-12-20T06:39:35;34.03;;;5.37;;
5137;SDS011;53959;53.626;11.410;2023-12-20T06:42:00;13.43;;;5.67;;
5137;SDS011;53959;53.626;11.410;2023-12-20T06:44:26;22.97;;;5.67;;
5137;SDS011;53959;53.626;11.410;2023-12-20T06:46:51;34.47;;;6.00;;
5137;SDS011;53959;53.626;11.410;2023-12-20T06:49:16;8.53;;;5.10;;
5137;SDS011;53959;53.626;11.410;2023-12-20T06:51:42;17.10;;;4.87;;
5137;SDS011;53959;53.626;11.410;2023-12-20T06:54:08;22.17;;;5.83;;
5137;SDS011;53959;53.626;11.410;2023-12-20T06:56:33;11.50;;;5.60;;
5137;SDS011;53959;53.626;11.410;2023-12-20T06:58:58;23.33;;;5.03;;
5137;SDS011;53959;53.626;11.410;2023-12-20T07:01:24;21.90;;;5.40;;
5137;SDS011;53959;53.626;11.410;2023-12-20T07:03:49;24.80;;;5.67;;
5137;SDS011;53959;53.626;11.410;2023-12-20T07:06:14;14.73;;;4.90;;
5137;SDS011;53959;53.626;11.410;2023-12-20T07:08:41;21.73;;;5.47;;
5137;SDS011;53959;53.626;11.410;2023-12-20T07:11:06;32.43;;;6.77;;
5137;SDS011;53959;53.626;11.410;2023-12-20T07:13:32;27.60;;;5.70;;
5137;SDS011;53959;53.626;11.410;2023-12-20T07:15:57;19.20;;;5.60;;
5137;SDS011;53959;53.626;11.410;2023-12-20T07:18:22;22.77;;;6.30;;
5137;SDS011;53959;53.626;11.410;2023-12-20T07:20:48;24.47;;;4.63;;
5137;SDS011;53959;53.626;11.410;2023-12-20T07:23:13;16.97;;;7.50;;
5137;SDS011;53959;53.626;11.410;2023-12-20T07:25:38;14.40;;;5.20;;
5137;SDS011;53959;53.626;11.410;2023-12-20T07:28:04;19.77;;;5.97;;
5137;SDS011;53959;53.626;11.410;2023-12-20T07:30:30;12.60;;;5.43;;
5137;SDS011;53959;53.626;11.410;2023-12-20T07:32:55;23.93;;;7.10;;
5137;SDS011;53959;53.626;11.410;2023-12-20T07:35:20;12.90;;;5.37;;
5137;SDS011;53959;53.626;11.410;2023-12-20T07:37:46;14.63;;;5.10;;
5137;SDS011;53959;53.626;11.410;2023-12-20T07:40:11;16.00;;;4.77;;
5137;SDS011;53959;53.626;11.410;2023-12-20T07:42:37;19.80;;;5.93;;
5137;SDS011;53959;53.626;11.410;2023-12-20T07:45:03;17.47;;;5.07;;
5137;SDS011;53959;53.626;11.410;2023-12-20T07:47:28;28.37;;;6.30;;
5137;SDS011;53959;53.626;11.410;2023-12-20T07:49:54;21.43;;;5.20;;
5137;SDS011;53959;53.626;11.410;2023-12-20T07:52:19;21.47;;;5.70;;
5137;SDS011;53959;53.626;11.410;2023-12-20T07:54:45;17.83;;;4.73;;
5137;SDS011;53959;53.626;11.410;2023-12-20T07:57:10;28.47;;;4.67;;
5137;SDS011;53959;53.626;11.410;2023-12-20T07:59:36;17.40;;;4.40;;
5137;SDS011;53959;53.626;11.410;2023-12-20T08:02:01;24.93;;;5.30;;
5137;SDS011;53959;53.626;11.410;2023-12-20T08:04:27;32.03;;;3.60;;
5137;SDS011;53959;53.626;11.410;2023-12-20T08:06:52;27.23;;;4.97;;
5137;SDS011;53959;53.626;11.410;2023-12-20T08:09:18;26.20;;;5.30;;
5137;SDS011;53959;53.626;11.410;2023-12-20T08:11:47;19.53;;;4.30;;
5137;SDS011;53959;53.626;11.410;2023-12-20T08:14:13;12.80;;;3.37;;
5137;SDS011;53959;53.626;11.410;2023-12-20T08:16:39;33.07;;;4.43;;
5137;SDS011;53959;53.626;11.410;2023-12-20T08:19:04;12.20;;;3.53;;
5137;SDS011;53959;53.626;11.410;2023-12-20T08:21:30;27.07;;;4.93;;
5137;SDS011;53959;53.626;11.410;2023-12-20T08:23:55;22.10;;;3.90;;
5137;SDS011;53959;53.626;11.410;2023-12-20T08:26:21;20.97;;;3.77;;
5137;SDS011;53959;53.626;11.410;2023-12-20T08:28:49;12.60;;;3.97;;
5137;SDS011;53959;53.626;11.410;2023-12-20T08:31:15;17.43;;;3.93;;
5137;SDS011;53959;53.626;11.410;2023-12-20T08:36:08;26.07;;;3.70;;
5137;SDS011;53959;53.626;11.410;2023-12-20T08:38:34;20.40;;;3.57;;
5137;SDS011;53959;53.626;11.410;2023-12-20T08:40:59;17.30;;;4.73;;
5137;SDS011;53959;53.626;11.410;2023-12-20T08:43:24;22.23;;;5.20;;
5137;SDS011;53959;53.626;11.410;2023-12-20T08:45:50;24.83;;;5.07;;
5137;SDS011;53959;53.626;11.410;2023-12-20T08:48:15;17.87;;;4.77;;
5137;SDS011;53959;53.626;11.410;2023-12-20T08:50:40;20.63;;;4.80;;
5137;SDS011;53959;53.626;11.410;2023-12-20T08:53:06;15.47;;;4.77;;
5137;SDS011;53959;53.626;11.410;2023-12-20T08:55:31;27.13;;;6.10;;
5137;SDS011;53959;53.626;11.410;2023-12-20T08:57:57;13.73;;;4.60;;
5137;SDS011;53959;53.626;11.410;2023-12-20T09:00:22;29.73;;;4.70;;
5137;SDS011;53959;53.626;11.410;2023-12-20T09:02:49;19.67;;;4.43;;
5137;SDS011;53959;53.626;11.410;2023-12-20T09:05:15;40.03;;;5.27;;
5137;SDS011;53959;53.626;11.410;2023-12-20T09:07:40;29.60;;;4.67;;
5137;SDS011;53959;53.626;11.410;2023-12-20T09:10:05;28.23;;;4.90;;
5137;SDS011;53959;53.626;11.410;2023-12-20T09:12:31;27.97;;;5.50;;
5137;SDS011;53959;53.626;11.410;2023-12-20T09:14:56;15.27;;;4.67;;
5137;SDS011;53959;53.626;11.410;2023-12-20T09:17:22;20.70;;;3.60;;
5137;SDS011;53959;53.626;11.410;2023-12-20T09:19:50;23.50;;;4.67;;
5137;SDS011;53959;53.626;11.410;2023-12-20T09:22:17;16.60;;;4.37;;
5137;SDS011;53959;53.626;11.410;2023-12-20T09:24:43;16.03;;;4.20;;
5137;SDS011;53959;53.626;11.410;2023-12-20T09:27:08;19.97;;;4.73;;
5137;SDS011;53959;53.626;11.410;2023-12-20T09:29:33;14.63;;;4.00;;
5137;SDS011;53959;53.626;11.410;2023-12-20T09:31:59;18.03;;;4.57;;
5137;SDS011;53959;53.626;11.410;2023-12-20T09:34:24;23.43;;;3.77;;
5137;SDS011;53959;53.626;11.410;2023-12-20T09:36:51;25.23;;;4.60;;
5137;SDS011;53959;53.626;11.410;2023-12-20T09:39:17;32.90;;;4.77;;
5137;SDS011;53959;53.626;11.410;2023-12-20T09:41:54;21.73;;;3.73;;
5137;SDS011;53959;53.626;11.410;2023-12-20T09:44:25;24.50;;;5.33;;
5137;SDS011;53959;53.626;11.410;2023-12-20T09:46:51;29.20;;;4.80;;
5137;SDS011;53959;53.626;11.410;2023-12-20T09:49:19;12.23;;;3.50;;
5137;SDS011;53959;53.626;11.410;2023-12-20T09:51:46;22.33;;;4.30;;
5137;SDS011;53959;53.626;11.410;2023-12-20T09:54:12;11.20;;;3.60;;
5137;SDS011;53959;53.626;11.410;2023-12-20T09:56:39;22.93;;;3.90;;
5137;SDS011;53959;53.626;11.410;2023-12-20T09:59:04;20.10;;;4.77;;
5137;SDS011;53959;53.626;11.410;2023-12-20T10:01:30;27.73;;;5.10;;
5137;SDS011;53959;53.626;11.410;2023-12-20T10:03:56;23.27;;;4.43;;
5137;SDS011;53959;53.626;11.410;2023-12-20T10:06:23;15.43;;;4.10;;
5137;SDS011;53959;53.626;11.410;2023-12-20T10:08:49;18.23;;;3.70;;
5137;SDS011;53959;53.626;11.410;2023-12-20T10:11:14;15.53;;;3.60;;
5137;SDS011;53959;53.626;11.410;2023-12-20T10:13:40;12.13;;;3.60;;
5137;SDS011;53959;53.626;11.410;2023-12-20T10:16:06;17.30;;;4.03;;
5137;SDS011;53959;53.626;11.410;2023-12-20T10:18:35;30.83;;;4.37;;
5137;SDS011;53959;53.626;11.410;2023-12-20T10:21:01;25.23;;;2.83;;
5137;SDS011;53959;53.626;11.410;2023-12-20T10:23:26;8.90;;;2.70;;
5137;SDS011;53959;53.626;11.410;2023-12-20T10:26:01;9.33;;;3.07;;
5137;SDS011;53959;53.626;11.410;2023-12-20T10:28:28;10.60;;;2.23;;
5137;SDS011;53959;53.626;11.410;2023-12-20T10:30:59;15.90;;;2.57;;
5137;SDS011;53959;53.626;11.410;2023-12-20T10:33:27;12.70;;;2.83;;
5137;SDS011;53959;53.626;11.410;2023-12-20T10:35:54;9.43;;;2.30;;
5137;SDS011;53959;53.626;11.410;2023-12-20T10:38:20;9.33;;;2.17;;
5137;SDS011;53959;53.626;11.410;2023-12-20T10:40:45;10.23;;;2.60;;
5137;SDS011;53959;53.626;11.410;2023-12-20T10:43:11;9.70;;;2.50;;
5137;SDS011;53959;53.626;11.410;2023-12-20T10:45:37;20.10;;;3.53;;
5137;SDS011;53959;53.626;11.410;2023-12-20T10:48:03;14.90;;;2.53;;
5137;SDS011;53959;53.626;11.410;2023-12-20T10:50:29;2.80;;;2.23;;
5137;SDS011;53959;53.626;11.410;2023-12-20T10:52:56;5.03;;;2.37;;
5137;SDS011;53959;53.626;11.410;2023-12-20T10:55:25;11.23;;;2.50;;
5137;SDS011;53959;53.626;11.410;2023-12-20T10:57:51;14.83;;;3.00;;
5137;SDS011;53959;53.626;11.410;2023-12-20T11:00:18;9.33;;;2.47;;
5137;SDS011;53959;53.626;11.410;2023-12-20T11:02:44;8.67;;;2.63;;
5137;SDS011;53959;53.626;11.410;2023-12-20T11:08:01;6.80;;;2.27;;
5137;SDS011;53959;53.626;11.410;2023-12-20T11:10:33;15.30;;;1.40;;
5137;SDS011;53959;53.626;11.410;2023-12-20T11:13:16;9.10;;;1.70;;
5137;SDS011;53959;53.626;11.410;2023-12-20T11:15:45;3.30;;;1.40;;
5137;SDS011;53959;53.626;11.410;2023-12-20T11:18:11;3.90;;;2.13;;
5137;SDS011;53959;53.626;11.410;2023-12-20T11:20:40;6.00;;;1.43;;
5137;SDS011;53959;53.626;11.410;2023-12-20T11:23:07;8.60;;;1.07;;
5137;SDS011;53959;53.626;11.410;2023-12-20T11:25:45;4.90;;;1.07;;
5137;SDS011;53959;53.626;11.410;2023-12-20T11:28:12;4.00;;;1.10;;
5137;SDS011;53959;53.626;11.410;2023-12-20T11:30:47;6.90;;;1.00;;
5137;SDS011;53959;53.626;11.410;2023-12-20T11:33:25;5.20;;;0.73;;
5137;SDS011;53959;53.626;11.410;2023-12-20T11:35:51;12.00;;;1.10;;
5137;SDS011;53959;53.626;11.410;2023-12-20T11:38:20;7.10;;;1.40;;
5137;SDS011;53959;53.626;11.410;2023-12-20T11:40:47;3.53;;;1.20;;
5137;SDS011;53959;53.626;11.410;2023-12-20T11:43:29;6.90;;;1.10;;
5137;SDS011;53959;53.626;11.410;2023-12-20T11:45:56;3.70;;;1.00;;
5137;SDS011;53959;53.626;11.410;2023-12-20T11:48:27;5.90;;;1.10;;
5137;SDS011;53959;53.626;11.410;2023-12-20T11:50:53;4.00;;;1.40;;
5137;SDS011;53959;53.626;11.410;2023-12-20T11:53:18;5.97;;;1.20;;
5137;SDS011;53959;53.626;11.410;2023-12-20T11:55:47;8.90;;;1.80;;
5137;SDS011;53959;53.626;11.410;2023-12-20T11:58:13;11.37;;;1.77;;
5137;SDS011;53959;53.626;11.410;2023-12-20T12:00:41;3.23;;;1.00;;
5137;SDS011;53959;53.626;11.410;2023-12-20T12:03:06;7.73;;;1.40;;
5137;SDS011;53959;53.626;11.410;2023-12-20T12:05:31;9.33;;;1.00;;
5137;SDS011;53959;53.626;11.410;2023-12-20T12:07:58;8.80;;;0.90;;
5137;SDS011;53959;53.626;11.410;2023-12-20T12:10:23;5.33;;;0.80;;
5137;SDS011;53959;53.626;11.410;2023-12-20T12:12:49;3.03;;;1.13;;
5137;SDS011;53959;53.626;11.410;2023-12-20T12:15:14;3.13;;;0.80;;
5137;SDS011;53959;53.626;11.410;2023-12-20T12:17:40;3.80;;;0.73;;
5137;SDS011;53959;53.626;11.410;2023-12-20T12:20:06;5.73;;;0.53;;
5137;SDS011;53959;53.626;11.410;2023-12-20T12:22:33;4.93;;;0.90;;
5137;SDS011;53959;53.626;11.410;2023-12-20T12:24:59;7.63;;;1.00;;
5137;SDS011;53959;53.626;11.410;2023-12-20T12:27:34;7.87;;;1.60;;
5137;SDS011;53959;53.626;11.410;2023-12-20T12:30:00;4.10;;;0.80;;
5137;SDS011;53959;53.626;11.410;2023-12-20T12:32:29;2.40;;;0.77;;
5137;SDS011;53959;53.626;11.410;2023-12-20T12:34:55;5.83;;;0.60;;
5137;SDS011;53959;53.626;11.410;2023-12-20T12:37:20;8.40;;;1.30;;
5137;SDS011;53959;53.626;11.410;2023-12-20T12:39:48;7.50;;;1.30;;
5137;SDS011;53959;53.626;11.410;2023-12-20T12:42:14;7.13;;;1.53;;
5137;SDS011;53959;53.626;11.410;2023-12-20T12:44:39;7.23;;;1.50;;
5137;SDS011;53959;53.626;11.410;2023-12-20T12:47:05;4.27;;;1.00;;
5137;SDS011;53959;53.626;11.410;2023-12-20T12:49:31;5.50;;;1.53;;
5137;SDS011;53959;53.626;11.410;2023-12-20T12:51:57;11.83;;;1.20;;
5137;SDS011;53959;53.626;11.410;2023-12-20T12:54:23;10.40;;;1.93;;
5137;SDS011;53959;53.626;11.410;2023-12-20T12:56:49;5.73;;;1.17;;
5137;SDS011;53959;53.626;11.410;2023-12-20T12:59:15;13.47;;;2.10;;
5137;SDS011;53959;53.626;11.410;2023-12-20T13:01:41;11.73;;;1.43;;
5137;SDS011;53959;53.626;11.410;2023-12-20T13:04:06;10.20;;;1.30;;
5137;SDS011;53959;53.626;11.410;2023-12-20T13:06:38;7.60;;;1.50;;
5137;SDS011;53959;53.626;11.410;2023-12-20T13:09:04;1.80;;;0.80;;
5137;SDS011;53959;53.626;11.410;2023-12-20T13:11:30;7.27;;;1.97;;
5137;SDS011;53959;53.626;11.410;2023-12-20T13:13:56;7.03;;;1.20;;
5137;SDS011;53959;53.626;11.410;2023-12-20T13:16:23;6.70;;;1.40;;
5137;SDS011;53959;53.626;11.410;2023-12-20T13:18:49;9.63;;;1.93;;
5137;SDS011;53959;53.626;11.410;2023-12-20T13:21:15;6.50;;;1.40;;
5137;SDS011;53959;53.626;11.410;2023-12-20T13:23:41;11.57;;;1.23;;
5137;SDS011;53959;53.626;11.410;2023-12-20T13:26:06;26.13;;;2.33;;
5137;SDS011;53959;53.626;11.410;2023-12-20T13:28:32;15.03;;;2.23;;
5137;SDS011;53959;53.626;11.410;2023-12-20T13:30:57;8.87;;;1.77;;
5137;SDS011;53959;53.626;11.410;2023-12-20T13:33:23;11.00;;;2.03;;
5137;SDS011;53959;53.626;11.410;2023-12-20T13:35:48;10.20;;;2.63;;
5137;SDS011;53959;53.626;11.410;2023-12-20T13:38:13;10.10;;;2.27;;
5137;SDS011;53959;53.626;11.410;2023-12-20T13:40:39;9.20;;;1.83;;
5137;SDS011;53959;53.626;11.410;2023-12-20T13:43:04;11.33;;;2.73;;
5137;SDS011;53959;53.626;11.410;2023-12-20T13:45:31;20.47;;;2.50;;
5137;SDS011;53959;53.626;11.410;2023-12-20T13:47:56;14.00;;;2.53;;
5137;SDS011;53959;53.626;11.410;2023-12-20T13:50:21;13.70;;;3.50;;
5137;SDS011;53959;53.626;11.410;2023-12-20T13:52:47;11.63;;;2.60;;
5137;SDS011;53959;53.626;11.410;2023-12-20T13:55:13;11.83;;;2.40;;
5137;SDS011;53959;53.626;11.410;2023-12-20T13:57:38;10.70;;;3.17;;
5137;SDS011;53959;53.626;11.410;2023-12-20T14:00:05;18.87;;;3.70;;
5137;SDS011;53959;53.626;11.410;2023-12-20T14:02:32;9.93;;;2.50;;
5137;SDS011;53959;53.626;11.410;2023-12-20T14:04:57;13.10;;;2.80;;
5137;SDS011;53959;53.626;11.410;2023-12-20T14:07:23;16.13;;;3.83;;
5137;SDS011;53959;53.626;11.410;2023-12-20T14:09:48;16.50;;;3.57;;
5137;SDS011;53959;53.626;11.410;2023-12-20T14:12:14;13.80;;;2.70;;
5137;SDS011;53959;53.626;11.410;2023-12-20T14:14:39;24.10;;;3.80;;
5137;SDS011;53959;53.626;11.410;2023-12-20T14:17:05;20.93;;;3.13;;
5137;SDS011;53959;53.626;11.410;2023-12-20T14:19:34;23.03;;;3.77;;
5137;SDS011;53959;53.626;11.410;2023-12-20T14:21:59;25.87;;;3.60;;
5137;SDS011;53959;53.626;11.410;2023-12-20T14:24:26;18.67;;;2.70;;
5137;SDS011;53959;53.626;11.410;2023-12-20T14:26:52;19.00;;;3.47;;
5137;SDS011;53959;53.626;11.410;2023-12-20T14:29:18;25.03;;;4.00;;
5137;SDS011;53959;53.626;11.410;2023-12-20T14:31:43;14.17;;;3.23;;
5137;SDS011;53959;53.626;11.410;2023-12-20T14:34:09;40.03;;;5.77;;
5137;SDS011;53959;53.626;11.410;2023-12-20T14:36:34;25.10;;;3.60;;